Schoonebeek, Netherlands
Current Conditions -  °F | °C
As of 5:25 PM on Sunday 23 Nov 2014 (Local Time) from EHGG Reporting Station
Clear Clear  
Wind Chill: 11°   Ceiling: Unl
Heat Index: 11°   Visibility: 6mi
Dew Point:   Wind: 5mph
Humidity: 88%   Direction: 170°S
Pressure: 29.91"   Gusts: NA
Location:  52.66°N, 6.88°E
Report Text: EHGG 231625Z AUTO 17004KT 9999 NSC 11/09 Q1013 NOSIG
Loading
Personal Weather Stations






























Interactive Weather Map New forecast layout! Learn more

10-Day Weather Forecast

Advertisements
Track Severe Weather on mobile